createdAt,value
2017-09-27T00:03:48.890Z,56.6
2017-09-27T00:14:03.069Z,56.8
2017-09-27T00:24:17.317Z,56.4
2017-09-27T00:34:31.321Z,56.5
2017-09-27T00:44:44.900Z,56.3
2017-09-27T00:54:58.878Z,56.3
2017-09-27T01:05:13.338Z,56.7
2017-09-27T01:15:27.585Z,56.3
2017-09-27T01:25:41.779Z,56.6
2017-09-27T01:35:55.914Z,56.4
2017-09-27T01:46:10.076Z,56.5
2017-09-27T01:56:21.344Z,56.2
2017-09-27T02:07:05.116Z,56.4
2017-09-27T02:17:16.402Z,56.3
2017-09-27T02:28:00.595Z,56.6
2017-09-27T02:38:44.911Z,56.7
2017-09-27T02:48:59.100Z,56.7
2017-09-27T02:59:13.405Z,56.7
2017-09-27T03:09:27.400Z,56.9
2017-09-27T03:19:41.710Z,57.1
2017-09-27T03:29:56.214Z,57.1
2017-09-27T03:40:10.597Z,57.1
2017-09-27T03:50:24.260Z,57.1
2017-09-27T04:00:38.709Z,56.9
2017-09-27T04:10:53.180Z,56.9
2017-09-27T04:21:37.605Z,57.3
2017-09-27T04:31:51.690Z,57.0
2017-09-27T04:42:05.793Z,57.0
2017-09-27T04:52:20.532Z,57.1
2017-09-27T05:02:34.254Z,57.2
2017-09-27T05:12:47.544Z,57.7
2017-09-27T05:23:01.896Z,57.2
2017-09-27T05:33:16.028Z,57.9
2017-09-27T05:43:30.485Z,57.6
2017-09-27T05:54:15.041Z,57.6
2017-09-27T06:04:29.228Z,57.7
2017-09-27T06:14:43.698Z,57.8
2017-09-27T06:24:57.820Z,57.8
2017-09-27T06:35:08.974Z,58.1
2017-09-27T06:45:23.117Z,57.8
2017-09-27T06:55:36.681Z,58.0
2017-09-27T07:05:50.667Z,58.2
2017-09-27T07:16:04.785Z,58.5
2017-09-27T07:26:19.257Z,58.5
2017-09-27T07:36:33.275Z,58.4
2017-09-27T07:46:47.769Z,58.2
2017-09-27T07:57:00.022Z,58.1
2017-09-27T08:07:14.054Z,58.3
2017-09-27T08:17:29.019Z,58.7
2017-09-27T08:27:42.471Z,59.1
2017-09-27T08:37:56.702Z,59.8
2017-09-27T08:48:11.204Z,76.7
2017-09-27T08:58:25.115Z,76.8
2017-09-27T09:08:39.629Z,75.2
2017-09-27T09:18:51.525Z,72.5
2017-09-27T09:29:35.624Z,72.2
2017-09-27T09:40:25.271Z,69.2
2017-09-27T09:50:39.483Z,65.1
2017-09-27T10:00:51.290Z,64.5
2017-09-27T10:11:35.517Z,61.5
2017-09-27T10:21:49.603Z,58.7
2017-09-27T10:32:02.802Z,55.8
2017-09-27T10:42:15.715Z,53.5
2017-09-27T10:52:29.797Z,51.4
2017-09-27T11:02:43.620Z,49.3
2017-09-27T11:12:57.715Z,48.6
2017-09-27T11:24:19.010Z,46.8
2017-09-27T11:35:04.058Z,45.6
2017-09-27T11:45:48.546Z,44.3
2017-09-27T11:56:02.066Z,43.9
2017-09-27T12:06:52.275Z,44.0
2017-09-27T12:17:07.540Z,44.1
2017-09-27T12:27:22.776Z,44.3
2017-09-27T12:37:40.391Z,44.3
2017-09-27T12:48:24.230Z,44.6
2017-09-27T12:58:40.485Z,44.4
2017-09-27T13:08:54.621Z,45.8
2017-09-27T13:19:09.624Z,47.7
2017-09-27T13:29:23.631Z,49.2
2017-09-27T13:39:41.226Z,49.6
2017-09-27T13:49:58.272Z,50.1
2017-09-27T14:00:47.880Z,49.8
2017-09-27T14:11:34.026Z,50.1
2017-09-27T14:21:48.454Z,49.7
2017-09-27T14:32:06.655Z,49.9
2017-09-27T14:42:22.380Z,50.3
2017-09-27T14:52:40.611Z,50.6
2017-09-27T15:03:26.957Z,50.7
2017-09-27T15:13:41.555Z,50.8
2017-09-27T15:23:54.994Z,50.8
2017-09-27T15:34:09.391Z,50.9
2017-09-27T15:44:23.698Z,50.8
2017-09-27T15:54:37.621Z,51.2
2017-09-27T16:05:23.451Z,51.8
2017-09-27T16:16:08.048Z,52.0
2017-09-27T16:26:22.137Z,52.1
2017-09-27T16:37:07.084Z,52.5
2017-09-27T16:47:18.560Z,52.3
2017-09-27T16:57:36.192Z,52.7
2017-09-27T17:07:49.699Z,52.6
2017-09-27T17:18:10.529Z,53.0
2017-09-27T17:28:25.056Z,53.4
2017-09-27T17:38:38.615Z,53.5
2017-09-27T17:48:59.801Z,53.9
2017-09-27T17:59:14.273Z,54.0
2017-09-27T18:09:29.208Z,54.2
2017-09-27T18:19:44.195Z,54.5
2017-09-27T18:29:59.747Z,54.7
2017-09-27T18:40:44.806Z,54.7
2017-09-27T18:51:00.846Z,55.1
2017-09-27T19:01:18.365Z,55.2
2017-09-27T19:11:36.014Z,55.0
2017-09-27T19:21:51.947Z,55.3
2017-09-27T19:32:05.781Z,55.7
2017-09-27T19:42:20.777Z,55.8
2017-09-27T19:52:36.086Z,55.9
2017-09-27T20:03:21.449Z,56.0
2017-09-27T20:14:06.218Z,56.0
2017-09-27T20:24:23.804Z,55.9
2017-09-27T20:34:38.664Z,55.8
2017-09-27T20:44:49.787Z,56.5
2017-09-27T20:55:03.234Z,56.3
2017-09-27T21:05:48.051Z,56.4
2017-09-27T21:16:32.909Z,56.1
2017-09-27T21:27:21.864Z,56.2
2017-09-27T21:37:35.901Z,55.9
2017-09-27T21:47:49.730Z,56.0
2017-09-27T21:58:08.383Z,55.9
2017-09-27T22:08:22.306Z,55.8
2017-09-27T22:18:36.363Z,55.8
2017-09-27T22:28:52.500Z,55.8
2017-09-27T22:39:10.753Z,55.7
2017-09-27T22:49:28.928Z,55.6
2017-09-27T22:59:43.773Z,55.6
2017-09-27T23:10:28.177Z,55.9
2017-09-27T23:21:12.920Z,55.9
2017-09-27T23:31:57.424Z,55.6
2017-09-27T23:42:11.555Z,56.1
2017-09-27T23:52:25.927Z,56.0
